createdAt,value
2019-03-09T00:01:00.681Z,99.90
2019-03-09T00:03:28.422Z,99.90
2019-03-09T00:05:56.367Z,99.90
2019-03-09T00:08:24.690Z,99.90
2019-03-09T00:10:58.695Z,99.90
2019-03-09T00:13:26.296Z,99.90
2019-03-09T00:15:54.024Z,99.90
2019-03-09T00:18:24.130Z,99.90
2019-03-09T00:20:51.962Z,99.90
2019-03-09T00:23:48.173Z,99.90
2019-03-09T00:26:35.301Z,99.90
2019-03-09T00:29:18.020Z,99.90
2019-03-09T00:31:50.377Z,99.90
2019-03-09T00:34:17.972Z,99.90
2019-03-09T00:36:45.514Z,99.90
2019-03-09T00:39:13.248Z,99.90
2019-03-09T00:41:40.884Z,99.90
2019-03-09T00:44:09.454Z,99.90
2019-03-09T00:46:37.022Z,99.90
2019-03-09T00:49:04.787Z,99.90
2019-03-09T00:51:32.320Z,99.90
2019-03-09T00:53:59.881Z,99.90
2019-03-09T00:56:27.529Z,99.90
2019-03-09T00:58:55.101Z,99.90
2019-03-09T01:01:22.664Z,99.90
2019-03-09T01:03:50.185Z,99.10
2019-03-09T01:06:17.778Z,99.50
2019-03-09T01:08:45.379Z,98.50
2019-03-09T01:11:13.043Z,99.20
2019-03-09T01:13:40.645Z,99.90
2019-03-09T01:16:08.167Z,99.90
2019-03-09T01:18:35.799Z,99.90
2019-03-09T01:21:03.464Z,99.70
2019-03-09T01:23:31.133Z,99.60
2019-03-09T01:25:58.640Z,99.90
2019-03-09T01:28:26.218Z,99.90
2019-03-09T01:30:53.780Z,99.90
2019-03-09T01:33:21.339Z,99.90
2019-03-09T01:35:48.897Z,99.90
2019-03-09T01:38:16.495Z,99.90
2019-03-09T01:40:44.123Z,99.90
2019-03-09T01:43:11.704Z,99.90
2019-03-09T01:45:39.264Z,99.90
2019-03-09T01:48:06.985Z,99.90
2019-03-09T01:50:34.539Z,99.90
2019-03-09T01:53:02.113Z,99.90
2019-03-09T01:55:29.674Z,99.90
2019-03-09T01:57:57.236Z,99.90
2019-03-09T02:00:24.781Z,99.90
2019-03-09T02:02:52.454Z,99.90
2019-03-09T02:05:19.994Z,99.90
2019-03-09T02:07:47.592Z,99.90
2019-03-09T02:10:15.847Z,99.90
2019-03-09T02:12:43.399Z,99.90
2019-03-09T02:15:11.334Z,99.90
2019-03-09T02:17:38.998Z,99.90
2019-03-09T02:20:06.794Z,99.90
2019-03-09T02:22:34.404Z,99.90
2019-03-09T02:25:02.060Z,99.90
2019-03-09T02:27:29.786Z,99.90
2019-03-09T02:29:57.314Z,99.30
2019-03-09T02:32:24.877Z,99.90
2019-03-09T02:34:52.667Z,99.90
2019-03-09T02:37:20.331Z,99.90
2019-03-09T02:39:52.901Z,99.20
2019-03-09T02:42:20.525Z,99.90
2019-03-09T02:44:48.134Z,99.50
2019-03-09T02:52:10.752Z,99.90
2019-03-09T02:54:38.435Z,99.90
2019-03-09T02:57:07.060Z,99.90
2019-03-09T02:59:34.691Z,99.90
2019-03-09T03:02:21.719Z,99.90
2019-03-09T03:04:49.359Z,99.90
2019-03-09T03:07:16.891Z,99.90
2019-03-09T03:09:44.422Z,99.90
2019-03-09T03:12:12.146Z,99.90
2019-03-09T03:14:39.793Z,99.90
2019-03-09T03:17:07.418Z,99.90
2019-03-09T03:19:34.958Z,99.90
2019-03-09T03:22:02.612Z,99.90
2019-03-09T03:24:30.162Z,99.90
2019-03-09T03:26:57.750Z,99.90
2019-03-09T03:29:25.413Z,99.90
2019-03-09T03:31:53.029Z,99.90
2019-03-09T03:34:21.621Z,99.90
2019-03-09T03:36:49.255Z,99.90
2019-03-09T03:39:16.822Z,99.90
2019-03-09T03:41:44.390Z,99.90
2019-03-09T03:44:12.044Z,99.90
2019-03-09T03:46:39.766Z,99.90
2019-03-09T03:49:07.496Z,99.90
2019-03-09T03:51:35.056Z,99.90
2019-03-09T03:54:02.703Z,99.90
2019-03-09T03:56:30.242Z,99.90
2019-03-09T03:58:57.805Z,99.90
2019-03-09T04:01:25.399Z,99.90
2019-03-09T04:03:53.036Z,99.90
2019-03-09T04:06:20.749Z,99.90
2019-03-09T04:08:49.214Z,99.90
2019-03-09T04:11:17.128Z,99.90
2019-03-09T04:13:45.019Z,99.90
2019-03-09T04:16:12.673Z,99.90
2019-03-09T04:18:40.233Z,99.90
2019-03-09T04:21:07.800Z,99.90
2019-03-09T04:23:35.406Z,99.90
2019-03-09T04:26:03.161Z,99.90
2019-03-09T04:28:30.731Z,99.90
2019-03-09T04:30:58.358Z,99.90
2019-03-09T04:33:25.916Z,99.90
2019-03-09T04:35:53.520Z,99.90
2019-03-09T04:38:21.074Z,99.90
2019-03-09T04:40:48.796Z,99.90
2019-03-09T04:43:16.384Z,99.90
2019-03-09T04:45:44.061Z,99.90
2019-03-09T04:48:12.694Z,99.90
2019-03-09T04:50:40.372Z,99.90
2019-03-09T04:53:07.942Z,99.90
2019-03-09T04:55:35.566Z,99.90
2019-03-09T04:58:03.140Z,99.90
2019-03-09T05:00:30.778Z,99.90
2019-03-09T05:02:58.467Z,99.90
2019-03-09T05:05:26.107Z,99.90
2019-03-09T05:08:09.449Z,99.90
2019-03-09T05:10:46.369Z,99.90
2019-03-09T05:13:23.157Z,99.90
2019-03-09T05:15:50.790Z,99.90
2019-03-09T05:18:18.413Z,99.90
2019-03-09T05:20:46.029Z,99.90
2019-03-09T05:23:13.581Z,99.90
2019-03-09T05:25:41.208Z,99.90
2019-03-09T05:28:08.794Z,99.90
2019-03-09T05:30:37.668Z,99.90
2019-03-09T05:33:05.304Z,99.90
2019-03-09T05:35:32.893Z,99.90
2019-03-09T05:38:00.450Z,99.90
2019-03-09T05:40:27.989Z,99.90
2019-03-09T05:42:55.614Z,99.90
2019-03-09T05:45:23.200Z,98.60
2019-03-09T05:47:50.786Z,99.30
2019-03-09T05:50:18.350Z,97.40
2019-03-09T05:52:49.979Z,98.10
2019-03-09T05:55:19.088Z,96.10
2019-03-09T05:57:46.690Z,96.30
2019-03-09T06:00:15.653Z,96.60
2019-03-09T06:02:43.331Z,98.10
2019-03-09T06:05:33.021Z,97.20
2019-03-09T06:08:00.630Z,98.30
2019-03-09T06:10:28.197Z,98.30
2019-03-09T06:12:55.804Z,98.40
2019-03-09T06:15:23.347Z,99.00
2019-03-09T06:17:50.962Z,99.60
2019-03-09T06:20:18.523Z,99.90
2019-03-09T06:22:46.133Z,99.90
2019-03-09T06:25:13.845Z,99.90
2019-03-09T06:27:41.355Z,99.90
2019-03-09T06:30:28.466Z,99.90
2019-03-09T06:33:30.735Z,99.90
2019-03-09T06:36:37.351Z,99.90
2019-03-09T06:39:31.440Z,99.90
2019-03-09T06:42:34.840Z,99.90
2019-03-09T06:45:02.543Z,99.90
2019-03-09T06:47:30.240Z,99.90
2019-03-09T06:49:57.932Z,99.90
2019-03-09T06:52:25.418Z,99.90
2019-03-09T06:54:52.970Z,99.90
2019-03-09T06:57:20.612Z,99.90
2019-03-09T06:59:48.154Z,96.70
2019-03-09T07:02:15.765Z,96.30
2019-03-09T07:04:43.396Z,95.20
2019-03-09T07:07:11.025Z,95.70
2019-03-09T07:09:38.614Z,93.30
2019-03-09T07:12:06.207Z,92.80
2019-03-09T07:15:17.469Z,91.50
2019-03-09T07:17:45.391Z,90.90
2019-03-09T07:20:13.187Z,92.20
2019-03-09T07:22:40.876Z,92.80
2019-03-09T07:25:08.615Z,92.80
2019-03-09T07:27:36.204Z,91.80
2019-03-09T07:30:06.337Z,90.00
2019-03-09T07:32:33.901Z,89.30
2019-03-09T07:35:01.506Z,86.90
2019-03-09T07:37:29.184Z,86.10
2019-03-09T07:39:56.770Z,87.70
2019-03-09T07:42:24.320Z,87.20
2019-03-09T07:44:52.038Z,86.60
2019-03-09T07:47:19.624Z,86.20
2019-03-09T07:49:47.273Z,87.80
2019-03-09T07:52:34.738Z,88.00
2019-03-09T07:55:02.363Z,88.10
2019-03-09T07:57:29.988Z,88.10
2019-03-09T07:59:57.663Z,88.30
2019-03-09T08:02:25.199Z,85.60
2019-03-09T08:04:52.688Z,85.40
2019-03-09T08:07:20.357Z,85.70
2019-03-09T08:09:48.064Z,84.90
2019-03-09T08:12:15.725Z,83.80
2019-03-09T08:14:43.469Z,82.30
2019-03-09T08:17:11.065Z,82.20
2019-03-09T08:19:38.620Z,82.20
2019-03-09T08:22:06.250Z,81.40
2019-03-09T08:24:33.869Z,81.00
2019-03-09T08:27:01.410Z,80.20
2019-03-09T08:29:29.057Z,80.80
2019-03-09T08:31:56.662Z,80.10
2019-03-09T08:34:24.244Z,79.00
2019-03-09T08:36:51.860Z,79.40
2019-03-09T08:39:19.428Z,79.80
2019-03-09T08:41:46.977Z,77.60
2019-03-09T08:44:14.490Z,75.80
2019-03-09T08:46:42.190Z,73.90
2019-03-09T08:49:09.788Z,73.90
2019-03-09T08:51:37.382Z,73.40
2019-03-09T08:54:04.967Z,74.20
2019-03-09T08:56:33.534Z,74.80
2019-03-09T08:59:01.351Z,75.80
2019-03-09T09:01:28.990Z,77.60
2019-03-09T09:03:56.640Z,72.80
2019-03-09T09:06:25.168Z,71.60
2019-03-09T09:08:52.740Z,71.40
2019-03-09T09:11:21.199Z,73.50
2019-03-09T09:13:48.906Z,72.80
2019-03-09T09:16:16.626Z,73.40
2019-03-09T09:18:44.235Z,72.70
2019-03-09T09:21:12.033Z,70.80
2019-03-09T09:23:39.739Z,71.50
2019-03-09T09:26:07.780Z,71.30
2019-03-09T09:28:35.349Z,71.50
2019-03-09T09:31:03.055Z,72.60
2019-03-09T09:33:30.876Z,73.50
2019-03-09T09:35:58.559Z,72.60
2019-03-09T09:38:26.225Z,72.90
2019-03-09T09:40:53.863Z,73.30
2019-03-09T09:43:21.492Z,70.10
2019-03-09T09:45:49.141Z,69.90
2019-03-09T09:48:16.725Z,69.30
2019-03-09T09:50:44.484Z,69.70
2019-03-09T09:53:12.088Z,68.90
2019-03-09T09:55:39.745Z,69.70
2019-03-09T09:58:07.479Z,69.80
2019-03-09T10:00:35.251Z,69.40
2019-03-09T10:03:02.972Z,71.50
2019-03-09T10:05:30.677Z,69.60
2019-03-09T10:07:58.395Z,69.10
2019-03-09T10:10:26.382Z,69.60
2019-03-09T10:12:55.776Z,70.50
2019-03-09T10:15:24.486Z,70.10
2019-03-09T10:17:52.351Z,70.50
2019-03-09T10:20:20.287Z,67.40
2019-03-09T10:22:47.859Z,67.90
2019-03-09T10:25:16.019Z,69.00
2019-03-09T10:27:43.669Z,69.60
2019-03-09T10:30:14.373Z,69.30
2019-03-09T10:32:41.943Z,69.60
2019-03-09T10:35:09.570Z,69.90
2019-03-09T10:37:37.201Z,69.20
2019-03-09T10:40:04.882Z,71.00
2019-03-09T10:42:32.607Z,69.00
2019-03-09T10:45:00.237Z,68.60
2019-03-09T10:47:27.836Z,69.00
2019-03-09T10:49:55.503Z,67.30
2019-03-09T10:52:23.194Z,65.30
2019-03-09T10:54:50.832Z,64.40
2019-03-09T10:57:18.490Z,65.40
2019-03-09T10:59:46.231Z,66.00
2019-03-09T11:02:14.082Z,65.40
2019-03-09T11:04:41.869Z,65.60
2019-03-09T11:07:09.498Z,65.60
2019-03-09T11:09:37.163Z,65.30
2019-03-09T11:12:04.830Z,65.10
2019-03-09T11:14:32.511Z,64.20
2019-03-09T11:17:00.057Z,62.10
2019-03-09T11:19:27.765Z,63.20
2019-03-09T11:21:55.372Z,64.40
2019-03-09T11:24:22.985Z,62.80
2019-03-09T11:26:51.472Z,60.30
2019-03-09T11:29:19.131Z,60.20
2019-03-09T11:31:46.666Z,59.80
2019-03-09T11:34:14.308Z,60.20
2019-03-09T11:36:42.058Z,59.90
2019-03-09T11:39:09.652Z,60.60
2019-03-09T11:41:37.320Z,61.90
2019-03-09T11:44:04.961Z,60.80
2019-03-09T11:46:32.632Z,59.70
2019-03-09T11:49:00.371Z,59.20
2019-03-09T11:51:28.024Z,56.90
2019-03-09T11:53:55.636Z,56.90
2019-03-09T11:56:23.270Z,57.80
2019-03-09T11:58:50.888Z,56.30
2019-03-09T12:01:18.598Z,56.40
2019-03-09T12:03:47.388Z,55.30
2019-03-09T12:06:17.050Z,55.00
2019-03-09T12:08:46.249Z,54.30
2019-03-09T12:11:13.947Z,55.00
2019-03-09T12:13:41.562Z,55.10
2019-03-09T12:16:09.232Z,55.00
2019-03-09T12:18:36.831Z,54.30
2019-03-09T12:21:04.452Z,54.00
2019-03-09T12:23:32.184Z,53.70
2019-03-09T12:25:59.896Z,54.70
2019-03-09T12:28:27.504Z,53.70
2019-03-09T12:30:55.032Z,52.10
2019-03-09T12:33:22.608Z,52.50
2019-03-09T12:35:50.328Z,53.20
2019-03-09T12:38:17.855Z,53.00
2019-03-09T12:40:45.396Z,50.40
2019-03-09T12:43:13.233Z,51.20
2019-03-09T12:45:40.847Z,51.30
2019-03-09T12:48:08.484Z,51.80
2019-03-09T12:50:36.120Z,52.40
2019-03-09T12:53:03.726Z,52.50
2019-03-09T12:55:31.277Z,52.30
2019-03-09T12:57:58.901Z,51.20
2019-03-09T13:00:26.491Z,50.90
2019-03-09T13:02:54.065Z,51.70
2019-03-09T13:05:21.821Z,51.30
2019-03-09T13:07:49.387Z,49.00
2019-03-09T13:10:17.108Z,48.50
2019-03-09T13:12:44.662Z,49.40
2019-03-09T13:15:13.125Z,50.60
2019-03-09T13:17:40.653Z,50.10
2019-03-09T13:20:08.986Z,47.90
2019-03-09T13:22:36.650Z,42.80
2019-03-09T13:25:04.507Z,43.00
2019-03-09T13:27:32.225Z,43.50
2019-03-09T13:30:00.143Z,41.00
2019-03-09T13:32:29.394Z,41.30
2019-03-09T13:34:57.073Z,41.70
2019-03-09T13:37:24.767Z,41.80
2019-03-09T13:39:52.392Z,41.50
2019-03-09T13:42:20.027Z,42.50
2019-03-09T13:44:47.590Z,44.10
2019-03-09T13:47:15.384Z,42.70
2019-03-09T13:49:42.985Z,43.00
2019-03-09T13:52:10.638Z,43.50
2019-03-09T13:54:38.228Z,42.30
2019-03-09T13:57:05.879Z,42.90
2019-03-09T13:59:33.538Z,42.50
2019-03-09T14:02:01.330Z,42.80
2019-03-09T14:04:28.884Z,43.10
2019-03-09T14:06:56.518Z,43.20
2019-03-09T14:09:24.062Z,43.30
2019-03-09T14:11:51.672Z,42.10
2019-03-09T14:14:19.246Z,41.80
2019-03-09T14:16:47.211Z,42.20
2019-03-09T14:19:14.799Z,42.90
2019-03-09T14:21:42.445Z,43.40
2019-03-09T14:24:10.320Z,43.60
2019-03-09T14:26:37.938Z,41.50
2019-03-09T14:29:05.561Z,42.00
2019-03-09T14:31:33.388Z,42.40
2019-03-09T14:34:01.350Z,42.40
2019-03-09T14:36:28.895Z,43.50
2019-03-09T14:38:56.749Z,43.60
2019-03-09T14:41:25.333Z,43.50
2019-03-09T14:43:52.915Z,43.80
2019-03-09T14:46:20.552Z,44.10
2019-03-09T14:48:48.095Z,42.90
2019-03-09T14:51:15.653Z,43.20
2019-03-09T14:53:43.219Z,42.80
2019-03-09T14:56:10.775Z,42.40
2019-03-09T14:58:38.251Z,43.10
2019-03-09T15:01:05.946Z,43.00
2019-03-09T15:03:33.544Z,43.00
2019-03-09T15:06:01.088Z,43.40
2019-03-09T15:08:28.635Z,43.40
2019-03-09T15:10:56.196Z,43.20
2019-03-09T15:13:23.736Z,43.90
2019-03-09T15:15:51.281Z,43.40
2019-03-09T15:18:18.852Z,43.50
2019-03-09T15:20:46.404Z,43.10
2019-03-09T15:23:13.987Z,43.60
2019-03-09T15:25:41.564Z,43.70
2019-03-09T15:28:09.127Z,42.40
2019-03-09T15:30:36.661Z,42.80
2019-03-09T15:33:04.301Z,43.60
2019-03-09T15:35:31.855Z,43.80
2019-03-09T15:37:59.527Z,43.50
2019-03-09T15:40:27.079Z,42.90
2019-03-09T15:42:54.580Z,42.70
2019-03-09T15:45:22.105Z,42.50
2019-03-09T15:47:49.731Z,41.80
2019-03-09T15:50:17.426Z,42.20
2019-03-09T15:52:45.080Z,41.50
2019-03-09T15:55:12.857Z,41.30
2019-03-09T15:57:40.393Z,41.50
2019-03-09T16:00:12.053Z,41.80
2019-03-09T16:02:39.620Z,41.60
2019-03-09T16:05:07.156Z,41.70
2019-03-09T16:07:34.797Z,41.90
2019-03-09T16:10:02.401Z,41.80
2019-03-09T16:12:29.992Z,42.40
2019-03-09T16:14:57.525Z,42.00
2019-03-09T16:17:25.063Z,42.40
2019-03-09T16:19:52.726Z,43.60
2019-03-09T16:22:20.332Z,44.70
2019-03-09T16:24:47.868Z,45.20
2019-03-09T16:27:15.394Z,46.50
2019-03-09T16:29:43.001Z,47.00
2019-03-09T16:32:10.534Z,47.40
2019-03-09T16:34:38.104Z,48.00
2019-03-09T16:37:05.716Z,48.50
2019-03-09T16:39:33.258Z,49.10
2019-03-09T16:42:00.862Z,49.50
2019-03-09T16:44:28.449Z,49.80
2019-03-09T16:46:55.966Z,50.10
2019-03-09T16:49:23.515Z,50.80
2019-03-09T16:51:51.099Z,51.70
2019-03-09T16:54:18.709Z,52.70
2019-03-09T16:56:46.280Z,53.40
2019-03-09T16:59:13.821Z,54.40
2019-03-09T17:01:41.404Z,55.00
2019-03-09T17:04:08.990Z,55.60
2019-03-09T17:06:36.601Z,56.20
2019-03-09T17:09:05.461Z,56.40
2019-03-09T17:11:33.180Z,57.30
2019-03-09T17:14:00.774Z,58.00
2019-03-09T17:16:28.316Z,58.10
2019-03-09T17:18:55.917Z,58.80
2019-03-09T17:21:23.500Z,59.10
2019-03-09T17:23:51.022Z,60.60
2019-03-09T17:26:18.637Z,61.00
2019-03-09T17:28:46.224Z,61.10
2019-03-09T17:31:13.780Z,62.30
2019-03-09T17:33:41.371Z,62.80
2019-03-09T17:36:09.015Z,64.20
2019-03-09T17:38:36.626Z,64.70
2019-03-09T17:41:04.294Z,65.50
2019-03-09T17:43:31.848Z,67.00
2019-03-09T17:45:59.504Z,67.20
2019-03-09T17:48:27.994Z,67.30
2019-03-09T17:50:55.892Z,67.10
2019-03-09T17:53:23.490Z,67.70
2019-03-09T17:55:51.125Z,67.50
2019-03-09T17:58:19.090Z,67.00
2019-03-09T18:00:47.499Z,67.00
2019-03-09T18:03:16.103Z,67.70
2019-03-09T18:05:44.681Z,67.70
2019-03-09T18:08:12.373Z,67.90
2019-03-09T18:10:46.080Z,69.20
2019-03-09T18:13:14.546Z,69.10
2019-03-09T18:15:42.673Z,67.60
2019-03-09T18:18:10.356Z,68.40
2019-03-09T18:20:37.923Z,68.90
2019-03-09T18:23:05.541Z,69.90
2019-03-09T18:25:33.252Z,69.50
2019-03-09T18:28:00.925Z,70.00
2019-03-09T18:30:29.439Z,70.40
2019-03-09T18:32:57.019Z,70.20
2019-03-09T18:35:24.585Z,70.10
2019-03-09T18:37:52.446Z,70.10
2019-03-09T18:40:20.025Z,69.80
2019-03-09T18:42:47.598Z,70.00
2019-03-09T18:45:15.465Z,69.80
2019-03-09T18:47:43.016Z,69.40
2019-03-09T18:50:10.660Z,70.00
2019-03-09T18:52:38.265Z,68.80
2019-03-09T18:55:05.942Z,68.60
2019-03-09T18:57:33.627Z,69.30
2019-03-09T19:00:01.153Z,68.60
2019-03-09T19:02:28.874Z,69.00
2019-03-09T19:04:56.460Z,69.20
2019-03-09T19:07:24.044Z,69.90
2019-03-09T19:09:51.611Z,70.00
2019-03-09T19:12:19.255Z,70.20
2019-03-09T19:14:46.861Z,70.10
2019-03-09T19:17:14.479Z,70.60
2019-03-09T19:19:42.028Z,70.10
2019-03-09T19:22:09.671Z,70.60
2019-03-09T19:24:37.232Z,71.00
2019-03-09T19:27:04.824Z,71.20
2019-03-09T19:29:32.696Z,71.50
2019-03-09T19:32:00.663Z,71.20
2019-03-09T19:34:28.313Z,71.00
2019-03-09T19:36:55.976Z,71.30
2019-03-09T19:39:23.710Z,71.50
2019-03-09T19:41:51.499Z,71.50
2019-03-09T19:44:19.227Z,72.00
2019-03-09T19:46:46.804Z,72.00
2019-03-09T19:49:14.572Z,72.10
2019-03-09T19:51:42.365Z,72.30
2019-03-09T19:54:10.130Z,71.70
2019-03-09T19:56:37.806Z,71.40
2019-03-09T19:59:05.579Z,71.30
2019-03-09T20:01:33.221Z,71.40
2019-03-09T20:04:00.812Z,71.70
2019-03-09T20:06:28.515Z,73.40
2019-03-09T20:08:56.164Z,72.40
2019-03-09T20:11:23.860Z,73.30
2019-03-09T20:13:51.502Z,73.50
2019-03-09T20:16:19.012Z,74.20
2019-03-09T20:18:46.561Z,74.70
2019-03-09T20:21:14.260Z,75.80
2019-03-09T20:23:41.793Z,77.20
2019-03-09T20:26:09.409Z,77.20
2019-03-09T20:28:37.078Z,78.00
2019-03-09T20:31:04.678Z,77.30
2019-03-09T20:33:32.259Z,78.10
2019-03-09T20:35:59.921Z,78.10
2019-03-09T20:38:27.450Z,80.00
2019-03-09T20:40:55.513Z,77.80
2019-03-09T20:43:23.221Z,78.30
2019-03-09T20:45:50.799Z,79.00
2019-03-09T20:48:18.514Z,79.30
2019-03-09T20:50:46.108Z,80.70
2019-03-09T20:53:13.670Z,80.50
2019-03-09T20:55:41.248Z,81.00
2019-03-09T20:58:08.917Z,81.50
2019-03-09T21:00:36.502Z,82.40
2019-03-09T21:03:04.250Z,82.60
2019-03-09T21:05:31.924Z,82.00
2019-03-09T21:07:59.464Z,82.00
2019-03-09T21:10:27.124Z,81.40
2019-03-09T21:12:56.264Z,82.30
2019-03-09T21:15:23.789Z,82.80
2019-03-09T21:17:51.409Z,83.00
2019-03-09T21:20:18.995Z,84.10
2019-03-09T21:22:46.625Z,84.40
2019-03-09T21:25:14.190Z,85.30
2019-03-09T21:27:41.796Z,86.70
2019-03-09T21:30:09.533Z,87.00
2019-03-09T21:32:37.596Z,87.20
2019-03-09T21:35:05.369Z,87.90
2019-03-09T21:37:33.072Z,88.50
2019-03-09T21:40:00.675Z,87.90
2019-03-09T21:42:28.361Z,87.40
2019-03-09T21:44:56.113Z,86.60
2019-03-09T21:47:23.694Z,86.30
2019-03-09T21:49:51.433Z,85.50
2019-03-09T21:52:18.985Z,85.70
2019-03-09T21:54:46.633Z,84.80
2019-03-09T21:57:14.537Z,84.20
2019-03-09T21:59:41.982Z,84.30
2019-03-09T22:02:09.687Z,84.50
2019-03-09T22:04:37.456Z,84.50
2019-03-09T22:07:05.355Z,83.90
2019-03-09T22:09:32.985Z,83.80
2019-03-09T22:12:00.712Z,83.40
2019-03-09T22:14:28.438Z,83.40
2019-03-09T22:16:57.027Z,83.70
2019-03-09T22:19:25.216Z,83.90
2019-03-09T22:21:53.008Z,84.90
2019-03-09T22:24:20.659Z,85.10
2019-03-09T22:26:48.410Z,85.40
2019-03-09T22:29:16.279Z,86.10
2019-03-09T22:31:43.757Z,86.90
2019-03-09T22:34:11.508Z,87.40
2019-03-09T22:36:39.160Z,87.90
2019-03-09T22:39:06.957Z,89.20
2019-03-09T22:41:34.652Z,88.80
2019-03-09T22:44:02.389Z,90.20
2019-03-09T22:46:30.066Z,90.80
2019-03-09T22:48:57.685Z,91.30
2019-03-09T22:51:25.293Z,93.30
2019-03-09T22:53:52.980Z,93.50
2019-03-09T22:56:20.745Z,94.10
2019-03-09T22:58:48.484Z,94.80
2019-03-09T23:01:16.117Z,95.80
2019-03-09T23:03:43.819Z,95.30
2019-03-09T23:06:11.500Z,95.20
2019-03-09T23:08:41.807Z,94.40
2019-03-09T23:11:09.316Z,92.70
2019-03-09T23:13:37.103Z,93.30
2019-03-09T23:16:04.837Z,92.50
2019-03-09T23:18:32.476Z,92.00
2019-03-09T23:21:00.106Z,91.80
2019-03-09T23:23:27.980Z,91.20
2019-03-09T23:25:55.522Z,92.00
2019-03-09T23:28:23.198Z,91.40
2019-03-09T23:30:51.056Z,91.40
2019-03-09T23:33:18.713Z,91.20
2019-03-09T23:35:46.376Z,91.80
2019-03-09T23:38:14.127Z,92.10
2019-03-09T23:40:41.672Z,92.30
2019-03-09T23:43:09.271Z,92.70
2019-03-09T23:45:36.877Z,93.20
2019-03-09T23:48:04.405Z,93.50
2019-03-09T23:50:32.723Z,93.90
2019-03-09T23:53:00.381Z,93.50
2019-03-09T23:55:28.008Z,93.60
2019-03-09T23:57:55.767Z,94.40
